Time;durP1;ratioP1;P1;durP2;ratioP2;P2;SDS_P1;SDS_P2;PMS_P1;PMS_P2;Temp;Humidity;BMP_temperature;BMP_pressure;BME280_temperature;BME280_humidity;BME280_pressure;Samples;Min_cycle;Max_cycle;Signal;HPM_P1;HPM_P2
2020/12/26 00:00:55;;;;;;;0.50;0.30;;;7.50;99.90;;;;;;5077663;28;20040;-73
2020/12/26 00:03:21;;;;;;;0.55;0.50;;;7.50;99.90;;;;;;5078050;28;20031;-73
2020/12/26 00:05:50;;;;;;;2.70;0.90;;;7.50;99.90;;;;;;5076917;28;20107;-73
2020/12/26 00:08:15;;;;;;;1.00;0.63;;;7.50;99.90;;;;;;5075921;28;20044;-73
2020/12/26 00:10:41;;;;;;;0.63;0.63;;;7.50;99.90;;;;;;5077584;28;20388;-73
2020/12/26 00:13:07;;;;;;;0.70;0.52;;;7.50;99.90;;;;;;5077418;28;20025;-73
2020/12/26 00:15:33;;;;;;;0.57;0.57;;;7.50;99.90;;;;;;5074453;28;20115;-73
2020/12/26 00:18:04;;;;;;;0.40;0.40;;;7.50;99.90;;;;;;5085550;28;20024;-74
2020/12/26 00:20:30;;;;;;;0.88;0.80;;;7.50;99.90;;;;;;5073997;28;20053;-74
2020/12/26 00:22:56;;;;;;;0.60;0.60;;;7.50;99.90;;;;;;5071816;28;20052;-74
2020/12/26 00:25:22;;;;;;;0.35;0.35;;;7.40;99.90;;;;;;5069440;28;20029;-74
2020/12/26 00:27:48;;;;;;;0.95;0.43;;;7.40;99.90;;;;;;5075491;28;20043;-74
2020/12/26 00:30:13;;;;;;;0.20;0.20;;;7.40;99.90;;;;;;5068607;28;20025;-74
2020/12/26 00:32:40;;;;;;;0.50;0.50;;;7.40;99.90;;;;;;5074520;28;20357;-75
2020/12/26 00:35:06;;;;;;;0.63;0.63;;;7.30;99.90;;;;;;5074199;28;20035;-75
2020/12/26 00:37:34;;;;;;;0.90;0.45;;;7.30;99.90;;;;;;5090900;28;20435;-74
2020/12/26 00:40:00;;;;;;;0.30;0.30;;;7.30;99.90;;;;;;5084904;28;20031;-74
2020/12/26 00:42:27;;;;;;;0.43;0.43;;;7.30;99.90;;;;;;5082609;28;20020;-75
2020/12/26 00:44:56;;;;;;;0.45;0.45;;;7.20;99.90;;;;;;5078530;28;20132;-75
2020/12/26 00:47:22;;;;;;;0.75;0.50;;;7.30;99.90;;;;;;5073085;28;20025;-75
2020/12/26 00:49:48;;;;;;;0.75;0.75;;;7.30;99.90;;;;;;5056004;28;20106;-74
2020/12/26 00:52:17;;;;;;;0.93;0.50;;;7.20;99.90;;;;;;5056603;28;20094;-75
2020/12/26 00:54:42;;;;;;;1.48;0.93;;;7.20;99.90;;;;;;5059673;28;20035;-73
2020/12/26 00:57:08;;;;;;;3.50;0.52;;;7.30;99.90;;;;;;5070072;28;20021;-75
2020/12/26 00:59:34;;;;;;;0.40;0.40;;;7.30;99.90;;;;;;5072612;28;20739;-77
2020/12/26 01:02:00;;;;;;;0.57;0.47;;;7.20;99.90;;;;;;5079392;28;20428;-75
2020/12/26 01:04:26;;;;;;;0.60;0.60;;;7.20;99.90;;;;;;5076015;28;20025;-74
2020/12/26 01:06:54;;;;;;;0.40;0.40;;;7.20;99.90;;;;;;5074883;28;20052;-75
2020/12/26 01:09:21;;;;;;;1.25;0.70;;;7.10;99.90;;;;;;5075546;28;20025;-75
2020/12/26 01:11:47;;;;;;;0.60;0.60;;;7.10;99.90;;;;;;5077395;28;20036;-76
2020/12/26 01:14:13;;;;;;;0.45;0.30;;;7.10;99.90;;;;;;5063518;28;20122;-77
2020/12/26 01:16:42;;;;;;;0.95;0.85;;;7.20;99.90;;;;;;5075760;28;20078;-77
2020/12/26 01:19:11;;;;;;;0.70;0.70;;;7.10;99.90;;;;;;5074009;28;20024;-74
2020/12/26 01:21:37;;;;;;;0.20;0.20;;;7.10;99.90;;;;;;5066839;28;20025;-75
2020/12/26 01:24:03;;;;;;;0.93;0.82;;;7.10;99.90;;;;;;5082492;28;20036;-77
2020/12/26 01:26:29;;;;;;;0.63;0.63;;;7.10;99.90;;;;;;5075596;28;20032;-75
2020/12/26 01:29:02;;;;;;;0.50;0.50;;;7.00;99.90;;;;;;5074453;28;20050;-75
2020/12/26 01:31:28;;;;;;;0.65;0.40;;;7.10;99.90;;;;;;5073402;28;20067;-76
2020/12/26 01:33:54;;;;;;;0.40;0.40;;;7.00;99.90;;;;;;5074977;28;20025;-75
2020/12/26 01:36:20;;;;;;;1.58;0.55;;;7.00;99.90;;;;;;5076923;28;20035;-76
2020/12/26 01:38:46;;;;;;;0.63;0.50;;;6.90;99.90;;;;;;5075045;28;20080;-78
2020/12/26 01:41:14;;;;;;;0.65;0.65;;;7.00;99.90;;;;;;5075988;28;20472;-75
2020/12/26 01:43:53;;;;;;;0.60;0.60;;;7.00;99.90;;;;;;5076141;28;20024;-76
2020/12/26 01:46:20;;;;;;;0.45;0.45;;;7.00;99.90;;;;;;5075022;28;20494;-75
2020/12/26 01:48:46;;;;;;;0.70;0.70;;;7.00;99.90;;;;;;5074606;28;20043;-75
2020/12/26 01:51:12;;;;;;;1.95;0.73;;;7.00;99.90;;;;;;5075485;28;20021;-73
2020/12/26 01:53:37;;;;;;;0.98;0.98;;;7.00;99.90;;;;;;5075685;28;20024;-73
2020/12/26 01:56:03;;;;;;;0.32;0.32;;;6.90;99.90;;;;;;5063202;28;20043;-75
2020/12/26 01:58:34;;;;;;;0.52;0.52;;;6.90;99.90;;;;;;5073262;28;20020;-75
2020/12/26 02:01:00;;;;;;;2.20;0.80;;;6.90;99.90;;;;;;5075480;28;20031;-75
2020/12/26 02:03:26;;;;;;;0.35;0.35;;;6.90;99.90;;;;;;5074021;28;20040;-74
2020/12/26 02:05:54;;;;;;;0.30;0.30;;;6.90;99.90;;;;;;5072217;28;20033;-76
2020/12/26 02:08:20;;;;;;;0.40;0.40;;;6.90;99.90;;;;;;5073616;28;20545;-75
2020/12/26 02:10:46;;;;;;;0.63;0.40;;;6.90;99.90;;;;;;5072210;28;20051;-75
2020/12/26 02:13:12;;;;;;;0.40;0.40;;;6.80;99.90;;;;;;5074083;28;20039;-77
2020/12/26 02:15:38;;;;;;;0.65;0.50;;;6.80;99.90;;;;;;5081274;28;20033;-75
2020/12/26 02:18:04;;;;;;;0.40;0.40;;;6.80;99.90;;;;;;5075763;28;20035;-75
2020/12/26 02:20:30;;;;;;;0.70;0.60;;;6.80;99.90;;;;;;5073880;28;20086;-75
2020/12/26 02:22:56;;;;;;;0.40;0.40;;;6.80;99.90;;;;;;5066816;28;20056;-75
2020/12/26 02:25:22;;;;;;;0.73;0.70;;;6.80;99.90;;;;;;5073021;28;20056;-74
2020/12/26 02:27:48;;;;;;;2.00;0.73;;;6.80;99.90;;;;;;5073501;28;20027;-75
2020/12/26 02:30:14;;;;;;;0.50;0.50;;;6.80;99.90;;;;;;5074022;28;20017;-74
2020/12/26 02:32:40;;;;;;;0.45;0.40;;;6.70;99.90;;;;;;5074570;28;20043;-75
2020/12/26 02:35:06;;;;;;;0.55;0.50;;;6.70;99.90;;;;;;5074419;28;20029;-76
2020/12/26 02:37:32;;;;;;;0.30;0.30;;;6.70;99.90;;;;;;5073839;28;20016;-75
2020/12/26 02:39:58;;;;;;;0.47;0.40;;;6.80;99.90;;;;;;5070540;28;20025;-76
2020/12/26 02:42:24;;;;;;;0.40;0.40;;;6.80;99.90;;;;;;5072862;28;20023;-76
2020/12/26 02:44:50;;;;;;;0.50;0.50;;;6.80;99.90;;;;;;5074055;28;20400;-76
2020/12/26 02:47:16;;;;;;;0.65;0.50;;;6.70;99.90;;;;;;5068805;28;20176;-75
2020/12/26 02:49:41;;;;;;;2.22;1.10;;;6.70;99.90;;;;;;5065684;28;20467;-73
2020/12/26 02:52:07;;;;;;;0.50;0.50;;;6.70;99.90;;;;;;5073919;28;20016;-77
2020/12/26 02:54:33;;;;;;;0.50;0.50;;;6.70;99.90;;;;;;5077903;28;20029;-76
2020/12/26 02:56:59;;;;;;;0.40;0.40;;;6.70;99.90;;;;;;5069964;28;20045;-74
2020/12/26 02:59:25;;;;;;;0.57;0.57;;;6.70;99.90;;;;;;5086296;28;20039;-74
2020/12/26 03:01:51;;;;;;;0.60;0.60;;;6.60;99.90;;;;;;5078915;28;20028;-73
2020/12/26 03:04:20;;;;;;;0.75;0.75;;;6.60;99.90;;;;;;5085811;28;20110;-75
2020/12/26 03:06:45;;;;;;;2.53;0.90;;;6.70;99.90;;;;;;5069499;28;20052;-74
2020/12/26 03:09:11;;;;;;;0.85;0.70;;;6.70;99.90;;;;;;5066053;28;20029;-75
2020/12/26 03:11:37;;;;;;;0.50;0.50;;;6.70;99.90;;;;;;5071934;28;20048;-74
2020/12/26 03:14:03;;;;;;;0.60;0.60;;;6.70;99.90;;;;;;5064156;28;20608;-76
2020/12/26 03:16:29;;;;;;;0.40;0.40;;;6.70;99.90;;;;;;5075356;28;20054;-77
2020/12/26 03:18:55;;;;;;;0.40;0.40;;;6.70;99.90;;;;;;5075098;28;20437;-78
2020/12/26 03:21:21;;;;;;;0.63;0.60;;;6.70;99.90;;;;;;5075109;28;20041;-73
2020/12/26 03:23:47;;;;;;;0.68;0.68;;;6.70;99.90;;;;;;5077746;28;20122;-75
2020/12/26 03:26:13;;;;;;;0.98;0.77;;;6.70;99.90;;;;;;5079019;28;20035;-76
2020/12/26 03:28:39;;;;;;;0.95;0.88;;;6.60;99.90;;;;;;5080372;28;20024;-74
2020/12/26 03:31:05;;;;;;;0.90;0.57;;;6.60;99.90;;;;;;5074866;28;20025;-76
2020/12/26 03:33:31;;;;;;;0.63;0.50;;;6.60;99.90;;;;;;5081990;28;20029;-75
2020/12/26 03:35:57;;;;;;;0.57;0.57;;;6.70;99.90;;;;;;5091479;28;20025;-76
2020/12/26 03:38:23;;;;;;;1.02;0.55;;;6.70;99.90;;;;;;5076863;28;20074;-74
2020/12/26 03:40:49;;;;;;;0.63;0.63;;;6.80;99.90;;;;;;5061895;28;20032;-75
2020/12/26 03:43:15;;;;;;;0.80;0.80;;;6.70;99.90;;;;;;5078841;28;20067;-75
2020/12/26 03:45:41;;;;;;;0.63;0.63;;;6.80;99.90;;;;;;5077873;28;20031;-75
2020/12/26 03:48:07;;;;;;;1.13;1.02;;;6.70;99.90;;;;;;5067937;28;20028;-75
2020/12/26 03:50:32;;;;;;;0.65;0.65;;;6.70;99.90;;;;;;5077270;28;20031;-75
2020/12/26 03:52:58;;;;;;;0.68;0.68;;;6.70;99.90;;;;;;5079112;28;20020;-75
2020/12/26 03:55:24;;;;;;;1.23;1.10;;;6.70;99.90;;;;;;5067630;28;20115;-76
2020/12/26 03:57:50;;;;;;;1.15;0.77;;;6.70;99.90;;;;;;5067310;28;20195;-75
2020/12/26 04:00:16;;;;;;;1.52;1.10;;;6.70;99.90;;;;;;5077314;28;20032;-75
2020/12/26 04:02:42;;;;;;;1.40;0.95;;;6.60;99.90;;;;;;5077447;28;20555;-75
2020/12/26 04:05:08;;;;;;;1.83;1.00;;;6.60;99.90;;;;;;5072888;28;20040;-74
2020/12/26 04:07:37;;;;;;;0.82;0.82;;;6.70;99.90;;;;;;5060921;28;20036;-75
2020/12/26 04:10:04;;;;;;;0.65;0.65;;;6.70;99.90;;;;;;5070626;28;20063;-75
2020/12/26 04:12:30;;;;;;;1.13;1.02;;;6.70;99.90;;;;;;5060692;28;20028;-75
2020/12/26 04:14:58;;;;;;;0.95;0.95;;;6.80;99.90;;;;;;5083728;28;20032;-75
2020/12/26 04:17:32;;;;;;;1.23;1.00;;;6.80;99.90;;;;;;5076999;28;20486;-75
2020/12/26 04:19:58;;;;;;;0.68;0.68;;;6.70;99.90;;;;;;5065205;28;20028;-78
2020/12/26 04:22:24;;;;;;;1.02;0.93;;;6.70;99.90;;;;;;5080457;28;20051;-72
2020/12/26 04:24:50;;;;;;;1.05;0.98;;;6.70;99.90;;;;;;5084122;28;20088;-72
2020/12/26 04:27:15;;;;;;;1.23;1.17;;;6.70;99.90;;;;;;5097306;28;20036;-72
2020/12/26 04:29:42;;;;;;;1.27;1.17;;;6.70;99.90;;;;;;5077727;28;20593;-73
2020/12/26 04:32:08;;;;;;;0.88;0.88;;;6.70;99.90;;;;;;5064189;28;20036;-76
2020/12/26 04:34:34;;;;;;;1.25;1.15;;;6.60;99.90;;;;;;5077215;28;20017;-72
2020/12/26 04:37:00;;;;;;;1.13;1.13;;;6.60;99.90;;;;;;5056890;28;20032;-75
2020/12/26 04:39:26;;;;;;;1.90;1.00;;;6.60;99.90;;;;;;5078154;28;20115;-75
2020/12/26 04:41:52;;;;;;;0.82;0.82;;;6.60;99.90;;;;;;5074602;28;20040;-74
2020/12/26 04:44:18;;;;;;;1.00;1.00;;;6.70;99.90;;;;;;5068013;28;20027;-74
2020/12/26 04:46:48;;;;;;;1.27;1.17;;;6.70;99.90;;;;;;5057777;28;20426;-76
2020/12/26 04:49:18;;;;;;;0.85;0.75;;;6.60;99.90;;;;;;5076814;28;20063;-75
2020/12/26 04:51:44;;;;;;;1.00;0.90;;;6.60;99.90;;;;;;5076957;28;20025;-78
2020/12/26 04:54:32;;;;;;;1.67;1.58;;;6.70;99.90;;;;;;5075827;28;20024;-78
2020/12/26 04:56:58;;;;;;;1.30;1.20;;;6.70;99.90;;;;;;5076685;28;20029;-76
2020/12/26 04:59:25;;;;;;;1.35;1.25;;;6.60;99.90;;;;;;5075968;28;20032;-75
2020/12/26 05:01:52;;;;;;;1.85;1.20;;;6.70;99.90;;;;;;5057161;28;20124;-74
2020/12/26 05:04:18;;;;;;;1.30;1.25;;;6.60;99.90;;;;;;5077932;28;20036;-75
2020/12/26 05:06:52;;;;;;;1.63;1.33;;;6.60;99.90;;;;;;5073091;28;20075;-74
2020/12/26 05:09:20;;;;;;;1.50;1.38;;;6.70;99.90;;;;;;5076706;28;20025;-76
2020/12/26 05:12:04;;;;;;;0.80;0.80;;;6.60;99.90;;;;;;5089043;28;20029;-75
2020/12/26 05:14:31;;;;;;;1.20;1.10;;;6.50;99.90;;;;;;5063868;28;20077;-75
2020/12/26 05:16:58;;;;;;;1.90;1.27;;;6.50;99.90;;;;;;5075142;28;20054;-74
2020/12/26 05:19:24;;;;;;;4.25;1.77;;;6.60;99.90;;;;;;5077786;28;20095;-75
2020/12/26 05:21:55;;;;;;;1.13;1.10;;;6.50;99.90;;;;;;5075789;28;20081;-74
2020/12/26 05:24:24;;;;;;;1.13;1.00;;;6.50;99.90;;;;;;5077482;28;20021;-76
2020/12/26 05:26:52;;;;;;;1.63;1.52;;;6.60;99.90;;;;;;5071278;28;20069;-75
2020/12/26 05:29:23;;;;;;;1.00;1.00;;;6.60;99.90;;;;;;5074565;28;20024;-75
2020/12/26 05:31:53;;;;;;;2.95;1.48;;;6.60;99.90;;;;;;5073915;28;20035;-75
2020/12/26 05:34:21;;;;;;;1.40;1.30;;;6.60;99.90;;;;;;5076928;28;20017;-76
2020/12/26 05:36:47;;;;;;;2.22;1.50;;;6.50;99.90;;;;;;5055948;28;20028;-75
2020/12/26 05:39:13;;;;;;;1.83;1.33;;;6.50;99.90;;;;;;5074315;28;20032;-72
2020/12/26 05:41:42;;;;;;;1.55;1.45;;;6.50;99.90;;;;;;5064648;28;20020;-75
2020/12/26 05:44:09;;;;;;;1.80;1.60;;;6.50;99.90;;;;;;5075731;28;20028;-74
2020/12/26 05:46:35;;;;;;;2.10;1.90;;;6.50;99.90;;;;;;5072598;28;20048;-75
2020/12/26 05:49:22;;;;;;;1.48;1.35;;;6.50;99.90;;;;;;5065566;28;20016;-75
2020/12/26 05:51:52;;;;;;;2.10;1.90;;;6.50;99.90;;;;;;5068456;28;20027;-74
2020/12/26 05:54:19;;;;;;;1.70;1.60;;;6.50;99.90;;;;;;5075036;28;20066;-72
2020/12/26 05:56:45;;;;;;;1.25;1.15;;;6.50;99.90;;;;;;5065548;28;20087;-75
2020/12/26 05:59:26;;;;;;;1.48;1.38;;;6.50;99.90;;;;;;5074814;28;20468;-73
2020/12/26 06:01:54;;;;;;;1.48;1.25;;;6.50;99.90;;;;;;5065668;28;20025;-77
2020/12/26 06:04:20;;;;;;;2.25;2.05;;;6.50;99.90;;;;;;5075874;28;20017;-75
2020/12/26 06:06:52;;;;;;;1.30;1.20;;;6.50;99.90;;;;;;5059293;28;20623;-77
2020/12/26 06:09:21;;;;;;;1.55;1.33;;;6.50;99.90;;;;;;5073613;28;20038;-73
2020/12/26 06:11:51;;;;;;;1.92;1.67;;;6.50;99.90;;;;;;5075073;28;20032;-74
2020/12/26 06:14:19;;;;;;;1.42;1.33;;;6.50;99.90;;;;;;5076292;28;20096;-74
2020/12/26 06:16:50;;;;;;;1.40;1.27;;;6.50;99.90;;;;;;5071931;28;20570;-75
2020/12/26 06:19:18;;;;;;;2.03;1.88;;;6.50;99.90;;;;;;5044871;28;20101;-75
2020/12/26 06:21:50;;;;;;;2.28;2.08;;;6.50;99.90;;;;;;5054757;28;20056;-77
2020/12/26 06:24:16;;;;;;;1.52;1.42;;;6.50;99.90;;;;;;5061492;28;20079;-75
2020/12/26 06:26:52;;;;;;;2.17;1.80;;;6.40;99.90;;;;;;5045684;28;20700;-75
2020/12/26 06:29:21;;;;;;;2.17;1.98;;;6.40;99.90;;;;;;5052554;28;20050;-72
2020/12/26 06:31:50;;;;;;;2.42;2.22;;;6.40;99.90;;;;;;5053505;28;20021;-75
2020/12/26 06:34:20;;;;;;;2.20;1.95;;;6.40;99.90;;;;;;5052481;28;20024;-74
2020/12/26 06:36:46;;;;;;;1.77;1.67;;;6.40;99.90;;;;;;5059993;28;20032;-75
2020/12/26 06:39:30;;;;;;;1.20;1.20;;;6.40;99.90;;;;;;5053543;28;20029;-73
2020/12/26 06:42:11;;;;;;;1.25;1.23;;;6.50;99.90;;;;;;5036196;28;20033;-76
2020/12/26 06:44:37;;;;;;;1.38;1.27;;;6.40;99.90;;;;;;5033236;28;20028;-75
2020/12/26 06:47:03;;;;;;;1.77;1.67;;;6.40;99.90;;;;;;5053249;28;20029;-74
2020/12/26 06:49:29;;;;;;;2.08;1.98;;;6.40;99.90;;;;;;5054259;28;20040;-74
2020/12/26 06:51:56;;;;;;;3.50;2.05;;;6.50;99.90;;;;;;5053323;28;20017;-74
2020/12/26 06:54:42;;;;;;;1.70;1.60;;;6.50;99.90;;;;;;5054562;28;20021;-75
2020/12/26 06:57:08;;;;;;;2.30;2.10;;;6.50;99.90;;;;;;5044230;28;20476;-75
2020/12/26 06:59:35;;;;;;;1.40;1.30;;;6.50;99.90;;;;;;5053836;28;20033;-75
2020/12/26 07:02:09;;;;;;;1.38;1.27;;;6.50;99.90;;;;;;5054575;28;20017;-75
2020/12/26 07:04:41;;;;;;;1.70;1.60;;;6.60;99.90;;;;;;5054044;28;20060;-74
2020/12/26 07:07:11;;;;;;;1.67;1.58;;;6.60;99.90;;;;;;5052425;28;20025;-76
2020/12/26 07:09:37;;;;;;;1.55;1.45;;;6.50;99.90;;;;;;5050496;28;20097;-74
2020/12/26 07:12:05;;;;;;;1.60;1.50;;;6.50;99.90;;;;;;5053857;28;20067;-75
2020/12/26 07:14:32;;;;;;;1.98;1.85;;;6.50;99.90;;;;;;5044605;28;20397;-75
2020/12/26 07:17:06;;;;;;;1.50;1.40;;;6.50;99.90;;;;;;5053737;28;20048;-75
2020/12/26 07:19:45;;;;;;;2.78;2.08;;;6.50;99.90;;;;;;5051930;28;20110;-73
2020/12/26 07:22:22;;;;;;;2.05;1.90;;;6.50;99.90;;;;;;5051492;28;20021;-77
2020/12/26 07:25:04;;;;;;;1.92;1.83;;;6.40;99.90;;;;;;5052403;28;20156;-75
2020/12/26 07:27:37;;;;;;;3.35;1.75;;;6.40;99.90;;;;;;5053280;28;20028;-74
2020/12/26 07:30:13;;;;;;;2.25;1.60;;;6.40;99.90;;;;;;5045897;28;20070;-73
2020/12/26 07:32:40;;;;;;;1.92;1.52;;;6.40;99.90;;;;;;5052576;28;20032;-75
2020/12/26 07:35:16;;;;;;;2.63;1.90;;;6.40;99.90;;;;;;5049001;28;20491;-75
2020/12/26 07:37:44;;;;;;;3.03;2.00;;;6.40;99.90;;;;;;5049938;28;20028;-75
2020/12/26 07:40:17;;;;;;;1.17;1.17;;;6.40;99.90;;;;;;5052292;28;20029;-74
2020/12/26 07:42:46;;;;;;;2.13;1.85;;;6.40;99.90;;;;;;5052597;28;20047;-75
2020/12/26 07:45:14;;;;;;;1.52;1.42;;;6.40;99.90;;;;;;5036600;28;21760;-74
2020/12/26 07:47:47;;;;;;;2.00;1.60;;;6.40;99.90;;;;;;5052731;28;20021;-74
2020/12/26 07:50:19;;;;;;;2.17;1.98;;;6.40;99.90;;;;;;5052529;28;20358;-75
2020/12/26 07:52:57;;;;;;;2.30;2.15;;;6.30;99.90;;;;;;5037740;28;20028;-74
2020/12/26 07:55:23;;;;;;;1.45;1.35;;;6.30;99.90;;;;;;5054138;28;20040;-75
2020/12/26 07:58:00;;;;;;;2.00;1.80;;;6.30;99.90;;;;;;5052684;28;20103;-73
2020/12/26 08:00:27;;;;;;;2.70;2.50;;;6.30;99.90;;;;;;5038445;28;20387;-75
2020/12/26 08:02:57;;;;;;;2.55;1.95;;;6.30;99.90;;;;;;5054197;28;20079;-75
2020/12/26 08:05:35;;;;;;;2.97;1.85;;;6.30;99.90;;;;;;5053091;28;20025;-74
2020/12/26 08:08:13;;;;;;;1.80;1.70;;;6.40;99.90;;;;;;5057702;28;20017;-75
2020/12/26 08:10:38;;;;;;;3.45;2.47;;;6.40;99.90;;;;;;5061499;28;20116;-73
2020/12/26 08:13:04;;;;;;;3.00;2.35;;;6.30;99.90;;;;;;5050455;28;20060;-74
2020/12/26 08:15:31;;;;;;;2.33;2.10;;;6.30;99.90;;;;;;5061220;28;20036;-77
2020/12/26 08:17:59;;;;;;;1.73;1.55;;;6.30;99.90;;;;;;5053791;28;20450;-73
2020/12/26 08:20:28;;;;;;;1.90;1.70;;;6.40;99.90;;;;;;5055760;28;20028;-74
2020/12/26 08:22:54;;;;;;;1.80;1.63;;;6.40;99.90;;;;;;5057193;28;20052;-75
2020/12/26 08:25:26;;;;;;;3.30;1.80;;;6.40;99.90;;;;;;5056166;28;20029;-78
2020/12/26 08:27:52;;;;;;;2.95;2.10;;;6.40;99.90;;;;;;5055737;28;20028;-74
2020/12/26 08:30:32;;;;;;;1.90;1.80;;;6.50;99.90;;;;;;5054436;28;20055;-75
2020/12/26 08:33:29;;;;;;;1.88;1.77;;;6.50;99.90;;;;;;5056598;28;20017;-74
2020/12/26 08:36:01;;;;;;;3.88;2.38;;;6.50;99.90;;;;;;5043016;28;20100;-75
2020/12/26 08:38:48;;;;;;;2.15;1.95;;;6.60;99.90;;;;;;5055598;28;20016;-73
2020/12/26 08:41:17;;;;;;;2.17;1.80;;;6.60;99.90;;;;;;5056185;28;20527;-74
2020/12/26 08:43:43;;;;;;;1.85;1.75;;;6.60;99.90;;;;;;5054395;28;20025;-75
2020/12/26 08:46:14;;;;;;;1.70;1.60;;;6.70;99.90;;;;;;5056348;28;20025;-74
2020/12/26 08:48:41;;;;;;;1.70;1.60;;;6.60;99.90;;;;;;5043276;28;20119;-74
2020/12/26 08:51:17;;;;;;;2.55;2.35;;;6.70;99.90;;;;;;5055272;28;20077;-75
2020/12/26 08:53:45;;;;;;;1.90;1.80;;;6.70;99.90;;;;;;5042955;28;20093;-74
2020/12/26 08:56:10;;;;;;;1.77;1.67;;;6.70;99.90;;;;;;5048803;28;20029;-75
2020/12/26 08:58:36;;;;;;;2.75;2.45;;;6.70;99.90;;;;;;5054722;28;20036;-73
2020/12/26 09:01:06;;;;;;;1.35;1.25;;;6.70;99.90;;;;;;5056525;28;20021;-73
2020/12/26 09:03:35;;;;;;;2.05;1.95;;;6.60;99.90;;;;;;5053452;28;20040;-75
2020/12/26 09:06:03;;;;;;;1.98;1.88;;;6.60;99.90;;;;;;5074333;28;20037;-73
2020/12/26 09:08:34;;;;;;;2.00;1.80;;;6.60;99.90;;;;;;5069509;28;20081;-74
2020/12/26 09:11:10;;;;;;;2.88;2.13;;;6.60;99.90;;;;;;5059372;28;20028;-74
2020/12/26 09:13:41;;;;;;;2.72;1.80;;;6.60;99.90;;;;;;5065228;28;20644;-74
2020/12/26 09:16:09;;;;;;;1.38;1.17;;;6.70;99.90;;;;;;5050156;28;20024;-74
2020/12/26 09:18:47;;;;;;;2.60;2.10;;;6.60;99.90;;;;;;5055810;28;20139;-74
2020/12/26 09:21:27;;;;;;;1.95;1.80;;;6.70;99.90;;;;;;5044366;28;20017;-73
2020/12/26 09:23:54;;;;;;;3.33;2.05;;;6.70;99.90;;;;;;5056172;28;20033;-74
2020/12/26 09:26:26;;;;;;;6.43;2.47;;;6.70;99.90;;;;;;5048511;28;20116;-76
2020/12/26 09:28:51;;;;;;;3.28;1.98;;;6.70;99.90;;;;;;5039384;28;20083;-74
2020/12/26 09:31:23;;;;;;;3.92;1.88;;;6.70;99.90;;;;;;5047677;28;20021;-74
2020/12/26 09:33:50;;;;;;;2.15;1.92;;;6.70;99.90;;;;;;5054796;28;20052;-75
2020/12/26 09:36:18;;;;;;;1.45;1.35;;;6.80;99.90;;;;;;5046020;28;20508;-76
2020/12/26 09:38:44;;;;;;;1.98;1.80;;;6.80;99.90;;;;;;5045920;28;20417;-75
2020/12/26 09:41:15;;;;;;;2.78;2.05;;;6.80;99.90;;;;;;5046410;28;20052;-75
2020/12/26 09:43:43;;;;;;;2.60;1.80;;;6.90;99.90;;;;;;5054890;28;20037;-75
2020/12/26 09:46:09;;;;;;;1.77;1.67;;;7.00;99.90;;;;;;5050808;28;20021;-75
2020/12/26 09:48:36;;;;;;;2.65;1.98;;;6.90;99.90;;;;;;5045981;28;20072;-75
2020/12/26 09:51:03;;;;;;;1.52;1.42;;;6.90;99.90;;;;;;5033845;28;20064;-75
2020/12/26 09:53:29;;;;;;;2.38;1.98;;;6.80;99.90;;;;;;5050999;28;20116;-74
2020/12/26 09:55:54;;;;;;;1.75;1.65;;;6.80;99.90;;;;;;5052289;28;20032;-75
2020/12/26 09:58:21;;;;;;;2.63;2.28;;;6.80;99.90;;;;;;5056462;28;20033;-74
2020/12/26 10:00:46;;;;;;;1.30;1.20;;;6.80;99.90;;;;;;5036822;28;20033;-74
2020/12/26 10:03:12;;;;;;;1.58;1.45;;;6.90;99.90;;;;;;5054370;28;20047;-71
2020/12/26 10:05:38;;;;;;;2.65;1.95;;;6.70;99.90;;;;;;5054139;28;20033;-73
2020/12/26 10:08:07;;;;;;;2.42;2.15;;;6.70;99.90;;;;;;5043463;28;20079;-73
2020/12/26 10:10:34;;;;;;;1.58;1.48;;;6.60;99.90;;;;;;5047944;28;20025;-72
2020/12/26 10:13:00;;;;;;;1.92;1.80;;;6.50;99.90;;;;;;5051517;28;20046;-72
2020/12/26 10:15:26;;;;;;;2.25;2.03;;;6.60;99.90;;;;;;5045043;28;20056;-72
2020/12/26 10:18:02;;;;;;;1.92;1.27;;;6.60;99.90;;;;;;5048897;28;20096;-75
2020/12/26 10:20:29;;;;;;;2.55;2.35;;;6.50;99.90;;;;;;5048816;28;20114;-72
2020/12/26 10:22:54;;;;;;;2.00;1.60;;;6.50;99.90;;;;;;5047554;28;20078;-71
2020/12/26 10:25:24;;;;;;;2.75;2.20;;;6.60;99.90;;;;;;5052733;28;20039;-72
2020/12/26 10:27:51;;;;;;;2.45;1.60;;;6.60;99.90;;;;;;5042499;28;20396;-72
2020/12/26 10:30:17;;;;;;;3.88;2.47;;;6.60;99.90;;;;;;5031367;28;20021;-72
2020/12/26 10:32:53;;;;;;;3.40;1.80;;;6.60;99.90;;;;;;5031483;28;20025;-75
2020/12/26 10:35:21;;;;;;;3.20;1.90;;;6.70;99.90;;;;;;5046864;28;20025;-72
2020/12/26 10:37:58;;;;;;;5.97;1.80;;;6.60;99.90;;;;;;5052033;28;20021;-72
2020/12/26 10:40:29;;;;;;;2.47;2.28;;;6.60;99.90;;;;;;5051160;28;20033;-73
2020/12/26 10:42:55;;;;;;;2.92;2.45;;;6.60;99.90;;;;;;5052247;28;20107;-73
2020/12/26 10:45:21;;;;;;;1.75;1.65;;;6.70;99.90;;;;;;5034754;28;20452;-73
2020/12/26 10:47:47;;;;;;;4.50;2.25;;;6.70;99.90;;;;;;5053381;28;20017;-73
2020/12/26 10:50:13;;;;;;;3.40;2.70;;;6.60;99.90;;;;;;5048624;28;20155;-71
2020/12/26 10:52:39;;;;;;;3.08;2.67;;;6.70;99.90;;;;;;5052620;28;20044;-71
2020/12/26 10:55:08;;;;;;;2.00;1.85;;;6.70;99.90;;;;;;5047488;28;20547;-75
2020/12/26 10:57:34;;;;;;;4.13;2.35;;;6.60;99.90;;;;;;5049595;28;20029;-72
2020/12/26 10:59:59;;;;;;;3.10;2.65;;;6.60;99.90;;;;;;5034979;28;20039;-71
2020/12/26 11:02:28;;;;;;;2.08;1.90;;;6.70;99.90;;;;;;5056512;28;20047;-72
2020/12/26 11:04:54;;;;;;;3.13;2.45;;;6.80;99.90;;;;;;5049119;28;20045;-72
2020/12/26 11:07:20;;;;;;;3.60;2.30;;;6.70;99.90;;;;;;5033831;28;20041;-71
2020/12/26 11:09:48;;;;;;;1.90;1.77;;;6.80;99.90;;;;;;5040369;28;20029;-73
2020/12/26 11:12:14;;;;;;;2.30;2.10;;;6.80;99.90;;;;;;5049393;28;20017;-72
2020/12/26 11:14:40;;;;;;;2.28;2.08;;;6.60;99.90;;;;;;5050531;28;20085;-72
2020/12/26 11:17:06;;;;;;;2.95;2.65;;;6.60;99.90;;;;;;5053153;28;20029;-74
2020/12/26 11:19:32;;;;;;;1.95;1.85;;;6.60;99.90;;;;;;5051437;28;20025;-72
2020/12/26 11:21:58;;;;;;;3.28;2.97;;;6.60;99.90;;;;;;5053222;28;20036;-73
2020/12/26 11:24:24;;;;;;;4.03;2.35;;;6.50;99.90;;;;;;5045698;28;20026;-72
2020/12/26 11:26:50;;;;;;;2.30;2.10;;;6.70;99.90;;;;;;5052052;28;20032;-72
2020/12/26 11:29:16;;;;;;;2.83;2.35;;;6.70;99.90;;;;;;5046020;28;20540;-71
2020/12/26 11:31:45;;;;;;;3.20;2.75;;;6.60;99.90;;;;;;5050832;28;20021;-72
2020/12/26 11:34:11;;;;;;;2.28;2.08;;;6.60;99.90;;;;;;5046541;28;20104;-72
2020/12/26 11:36:53;;;;;;;2.08;1.95;;;6.60;99.90;;;;;;5050317;28;20025;-72
2020/12/26 11:39:19;;;;;;;1.85;1.73;;;6.50;99.90;;;;;;5045336;28;20048;-72
2020/12/26 11:41:48;;;;;;;3.50;2.40;;;6.60;99.90;;;;;;5035398;28;20033;-73
2020/12/26 11:44:13;;;;;;;3.42;2.83;;;6.70;99.90;;;;;;5054170;28;20178;-71
2020/12/26 11:46:39;;;;;;;5.70;2.17;;;6.70;99.90;;;;;;5056806;28;20053;-72
2020/12/26 11:49:05;;;;;;;8.27;2.22;;;6.80;99.90;;;;;;5047630;28;20024;-71
2020/12/26 11:51:31;;;;;;;2.65;2.42;;;6.70;99.90;;;;;;5056640;28;20365;-72
2020/12/26 11:54:03;;;;;;;2.28;2.08;;;6.90;99.90;;;;;;5034979;28;20040;-73
2020/12/26 11:56:29;;;;;;;;;;;7.00;99.90;;;;;;5069358;28;20029;-70
2020/12/26 11:58:55;;;;;;;4.35;2.67;;;7.00;99.90;;;;;;5063470;28;19932;-75
2020/12/26 12:01:23;;;;;;;2.58;2.38;;;7.10;99.90;;;;;;5057893;28;20029;-73
2020/12/26 12:03:49;;;;;;;4.00;2.60;;;7.30;99.90;;;;;;5056766;28;20491;-73
2020/12/26 12:06:15;;;;;;;1.77;1.67;;;7.20;99.90;;;;;;5033918;28;20022;-73
2020/12/26 12:08:41;;;;;;;3.17;2.80;;;7.10;99.90;;;;;;5029236;28;20572;-73
2020/12/26 12:11:10;;;;;;;2.08;1.92;;;7.20;99.90;;;;;;5047559;28;20025;-73
2020/12/26 12:13:37;;;;;;;2.60;1.75;;;7.10;99.90;;;;;;5055484;28;20025;-72
2020/12/26 12:16:04;;;;;;;2.22;1.92;;;7.00;99.90;;;;;;5046773;28;20021;-72
2020/12/26 12:18:33;;;;;;;3.03;2.78;;;7.10;99.90;;;;;;5033218;28;20029;-73
2020/12/26 12:21:07;;;;;;;7.57;2.65;;;7.00;99.90;;;;;;5037608;28;20078;-75
2020/12/26 12:23:49;;;;;;;2.50;2.08;;;7.00;99.90;;;;;;5047223;28;20115;-74
2020/12/26 12:26:22;;;;;;;2.50;2.30;;;7.10;99.90;;;;;;5032998;28;20029;-73
2020/12/26 12:28:48;;;;;;;3.42;3.15;;;7.00;99.90;;;;;;5053936;28;20496;-71
2020/12/26 12:31:14;;;;;;;2.15;1.92;;;6.90;99.90;;;;;;5054432;28;20024;-72
2020/12/26 12:33:45;;;;;;;3.00;2.55;;;6.90;99.90;;;;;;5050905;28;20674;-72
2020/12/26 12:36:13;;;;;;;2.40;2.20;;;6.80;99.90;;;;;;5054991;28;20039;-72
2020/12/26 12:38:42;;;;;;;3.08;2.85;;;6.90;99.90;;;;;;5047262;28;20071;-72
2020/12/26 12:41:08;;;;;;;2.22;2.03;;;7.00;99.90;;;;;;5048894;28;20052;-72
2020/12/26 12:43:35;;;;;;;5.88;2.15;;;7.00;99.90;;;;;;5054735;28;20025;-74
2020/12/26 12:46:01;;;;;;;2.92;2.35;;;6.90;99.90;;;;;;5049739;28;20350;-72
2020/12/26 12:48:27;;;;;;;2.88;2.67;;;7.00;99.90;;;;;;5052385;28;20533;-72
2020/12/26 12:50:53;;;;;;;2.65;2.33;;;7.00;99.90;;;;;;5053047;28;20104;-72
2020/12/26 12:53:19;;;;;;;3.75;2.90;;;7.00;99.90;;;;;;5048848;28;20503;-72
2020/12/26 12:55:47;;;;;;;2.47;2.28;;;7.20;99.90;;;;;;5053365;28;20033;-73
2020/12/26 12:58:12;;;;;;;3.03;2.70;;;7.30;99.90;;;;;;5054019;28;20082;-72
2020/12/26 13:00:41;;;;;;;4.35;3.13;;;7.20;99.90;;;;;;5046682;28;20021;-72
2020/12/26 13:03:07;;;;;;;2.10;1.90;;;7.30;99.90;;;;;;5048508;28;20086;-71